Main page
METAR-TAF:

Airports :

Gloucester, England

Gloucestershire Airport

latitude: 51-54N, longitude: 002-10W, elevation: 29 m

Current weather observation

The report was made 26 minutes ago, at 16:50 UTC
Wind 9 kt from the South
Temperature 16°C
Humidity 77%
Pressure 1019 hPa
Visibility 10 km or more
Scattered clouds at a height of 2800 ft

METAR: EGBJ 261650Z 19009KT 9999 SCT028 16/12 Q1019

Time: 18:16 (17:16 UTC)

Forecast

The report was made 3 hours and 17 minutes ago, at 13:59 UTC
Forecast valid from 26 at 15 UTC to 26 at 19 UTC
Wind 10 kt from the South
Visibility 10 km or more
Few clouds at a height of 2000 ft
Scattered clouds at a height of 2500 ft
Probability 30% :
Temporary
from 26 at 15 UTC to 26 at 16 UTC
Visibility: 7000 m
rain

TAF: EGBJ 261359Z 2615/2619 18010KT 9999 FEW020 SCT025 PROB30 TEMPO 2615/2616 7000 RA

METAR-TAF

Weather observations and forecasts of more than 4000 airports (METAR and TAF reports).

The available stations are represented by yellow and red dots on the map.

Hover mouse over dot to see the name of the station.

Then click to see weather observations and forecasts.

To change the map : click on the green buttons with a black cross to zoom in, on the green button with a dash to zoom out, or on the green arrows for adjacent maps.


METAR-TAF: